createdAt,value
2018-01-27T00:00:49.910Z,4.40
2018-01-27T00:01:49.900Z,4.70
2018-01-27T00:02:49.888Z,4.30
2018-01-27T00:03:49.877Z,4.40
2018-01-27T00:04:49.865Z,5.00
2018-01-27T00:05:49.856Z,5.60
2018-01-27T00:06:49.844Z,4.20
2018-01-27T00:07:49.833Z,3.80
2018-01-27T00:08:49.825Z,5.60
2018-01-27T00:09:49.810Z,6.20
2018-01-27T00:10:49.800Z,4.80
2018-01-27T00:11:49.788Z,4.50
2018-01-27T00:12:49.776Z,4.00
2018-01-27T00:13:49.766Z,5.30
2018-01-27T00:14:49.754Z,4.10
2018-01-27T00:15:49.743Z,4.90
2018-01-27T00:16:49.730Z,4.60
2018-01-27T00:17:49.721Z,5.10
2018-01-27T00:18:49.709Z,5.80
2018-01-27T00:19:49.697Z,5.30
2018-01-27T00:20:49.690Z,4.80
2018-01-27T00:21:49.676Z,4.60
2018-01-27T00:22:49.664Z,5.00
2018-01-27T00:23:49.656Z,4.70
2018-01-27T00:24:49.641Z,4.90
2018-01-27T00:25:49.631Z,5.10
2018-01-27T00:26:49.623Z,4.70
2018-01-27T00:27:49.609Z,5.10
2018-01-27T00:28:49.598Z,5.00
2018-01-27T00:29:49.587Z,5.10
2018-01-27T00:30:49.577Z,5.10
2018-01-27T00:31:49.565Z,4.60
2018-01-27T00:32:49.554Z,4.60
2018-01-27T00:33:49.542Z,5.40
2018-01-27T00:34:49.531Z,4.90
2018-01-27T00:35:49.519Z,5.90
2018-01-27T00:36:49.514Z,4.80
2018-01-27T00:37:49.497Z,4.30
2018-01-27T00:38:49.486Z,4.70
2018-01-27T00:39:49.474Z,5.00
2018-01-27T00:40:49.463Z,4.60
2018-01-27T00:41:49.452Z,4.80
2018-01-27T00:42:49.441Z,5.70
2018-01-27T00:43:49.430Z,5.50
2018-01-27T00:44:49.419Z,4.70
2018-01-27T00:45:49.409Z,6.50
2018-01-27T00:46:49.401Z,5.40
2018-01-27T00:47:49.385Z,6.40
2018-01-27T00:48:49.375Z,6.60
2018-01-27T00:49:49.364Z,6.20
2018-01-27T00:50:49.354Z,5.50
2018-01-27T00:51:49.342Z,5.80
2018-01-27T00:52:49.330Z,5.90
2018-01-27T00:53:49.319Z,5.60
2018-01-27T00:54:49.309Z,6.30
2018-01-27T00:55:49.298Z,4.90
2018-01-27T00:56:49.286Z,6.50
2018-01-27T00:57:49.275Z,6.60
2018-01-27T00:58:49.265Z,4.90
2018-01-27T00:59:49.254Z,5.50
2018-01-27T01:00:49.250Z,4.80
2018-01-27T01:01:49.231Z,6.80
2018-01-27T01:02:49.221Z,6.20
2018-01-27T01:03:49.208Z,4.20
2018-01-27T01:04:49.197Z,7.30
2018-01-27T01:05:49.186Z,5.10
2018-01-27T01:06:49.174Z,7.20
2018-01-27T01:07:49.163Z,6.60
2018-01-27T01:08:49.152Z,6.40
2018-01-27T01:09:49.141Z,5.80
2018-01-27T01:10:49.130Z,6.00
2018-01-27T01:11:49.118Z,6.00
2018-01-27T01:12:49.108Z,5.50
2018-01-27T01:13:49.096Z,6.40
2018-01-27T01:14:49.086Z,6.30
2018-01-27T01:15:49.074Z,6.50
2018-01-27T01:16:49.062Z,7.40
2018-01-27T01:17:49.052Z,6.30
2018-01-27T01:18:49.040Z,6.30
2018-01-27T01:19:49.029Z,5.80
2018-01-27T01:20:49.017Z,6.90
2018-01-27T01:21:49.007Z,6.50
2018-01-27T01:22:48.995Z,6.90
2018-01-27T01:23:48.983Z,7.70
2018-01-27T01:24:48.972Z,6.00
2018-01-27T01:25:48.961Z,6.00
2018-01-27T01:26:48.950Z,6.40
2018-01-27T01:27:48.938Z,6.20
2018-01-27T01:28:48.926Z,6.80
2018-01-27T01:29:48.916Z,6.20
2018-01-27T01:30:48.905Z,5.80
2018-01-27T01:31:48.901Z,6.90
2018-01-27T01:32:48.882Z,7.60
2018-01-27T01:33:48.876Z,7.10
2018-01-27T01:34:48.860Z,7.20
2018-01-27T01:35:48.849Z,6.80
2018-01-27T01:36:48.837Z,6.80
2018-01-27T01:37:48.825Z,8.20
2018-01-27T01:38:48.814Z,7.10
2018-01-27T01:39:48.802Z,6.50
2018-01-27T01:40:48.792Z,6.00
2018-01-27T01:41:48.782Z,8.10
2018-01-27T01:42:48.769Z,6.30
2018-01-27T01:43:48.758Z,7.00
2018-01-27T01:44:48.746Z,5.20
2018-01-27T01:45:48.735Z,5.90
2018-01-27T01:46:48.726Z,7.40
2018-01-27T01:47:48.712Z,7.20
2018-01-27T01:48:48.702Z,7.40
2018-01-27T01:49:48.690Z,5.90
2018-01-27T01:50:48.680Z,6.30
2018-01-27T01:51:48.667Z,7.70
2018-01-27T01:52:48.655Z,7.30
2018-01-27T01:53:48.645Z,6.60
2018-01-27T01:54:48.633Z,7.20
2018-01-27T01:55:48.622Z,8.90
2018-01-27T01:56:48.611Z,8.90
2018-01-27T01:57:48.599Z,8.00
2018-01-27T01:58:48.588Z,8.10
2018-01-27T01:59:48.576Z,9.10
2018-01-27T02:00:48.564Z,9.50
2018-01-27T02:01:48.554Z,9.10
2018-01-27T02:02:48.543Z,9.30
2018-01-27T02:03:48.531Z,11.20
2018-01-27T02:04:48.520Z,9.30
2018-01-27T02:05:48.509Z,9.10
2018-01-27T02:06:48.497Z,9.90
2018-01-27T02:07:48.485Z,10.70
2018-01-27T02:08:48.473Z,9.90
2018-01-27T02:09:48.462Z,10.30
2018-01-27T02:10:48.450Z,10.10
2018-01-27T02:11:48.445Z,8.40
2018-01-27T02:12:48.426Z,10.80
2018-01-27T02:13:48.416Z,10.80
2018-01-27T02:14:48.403Z,11.60
2018-01-27T02:15:48.392Z,9.90
2018-01-27T02:16:48.382Z,10.90
2018-01-27T02:17:48.370Z,11.10
2018-01-27T02:18:48.359Z,9.20
2018-01-27T02:19:48.346Z,11.10
2018-01-27T02:20:48.336Z,10.90
2018-01-27T02:21:48.360Z,11.50
2018-01-27T02:22:48.312Z,8.80
2018-01-27T02:23:48.301Z,9.20
2018-01-27T02:24:48.290Z,9.90
2018-01-27T02:25:48.279Z,10.50
2018-01-27T02:26:48.267Z,10.20
2018-01-27T02:27:48.256Z,10.60
2018-01-27T02:28:48.244Z,10.50
2018-01-27T02:29:48.232Z,10.70
2018-01-27T02:30:48.223Z,10.30
2018-01-27T02:31:48.209Z,11.40
2018-01-27T02:32:48.213Z,11.30
2018-01-27T02:33:48.187Z,11.40
2018-01-27T02:34:48.176Z,12.90
2018-01-27T02:35:48.163Z,10.50
2018-01-27T02:36:48.150Z,11.80
2018-01-27T02:37:48.140Z,10.20
2018-01-27T02:38:48.128Z,11.60
2018-01-27T02:39:48.116Z,11.10
2018-01-27T02:40:48.104Z,12.60
2018-01-27T02:41:48.093Z,11.60
2018-01-27T02:42:48.081Z,11.10
2018-01-27T02:43:48.069Z,11.10
2018-01-27T02:44:48.058Z,11.70
2018-01-27T02:45:48.047Z,12.40
2018-01-27T02:46:48.036Z,11.30
2018-01-27T02:47:48.022Z,13.00
2018-01-27T02:48:48.012Z,11.00
2018-01-27T02:49:48.001Z,13.70
2018-01-27T02:50:47.990Z,11.00
2018-01-27T02:51:47.982Z,12.70
2018-01-27T02:52:47.965Z,11.00
2018-01-27T02:53:47.952Z,11.40
2018-01-27T02:54:47.942Z,12.30
2018-01-27T02:55:47.929Z,11.80
2018-01-27T02:56:47.922Z,12.70
2018-01-27T02:57:47.907Z,10.60
2018-01-27T02:58:47.895Z,11.80
2018-01-27T02:59:47.882Z,13.20
2018-01-27T03:00:47.870Z,10.60
2018-01-27T03:01:47.861Z,10.80
2018-01-27T03:02:47.848Z,11.20
2018-01-27T03:03:47.836Z,12.00
2018-01-27T03:04:47.825Z,9.90
2018-01-27T03:05:47.814Z,10.20
2018-01-27T03:06:47.802Z,11.10
2018-01-27T03:07:47.789Z,9.90
2018-01-27T03:08:47.777Z,10.70
2018-01-27T03:09:47.767Z,10.10
2018-01-27T03:10:47.754Z,10.70
2018-01-27T03:11:47.742Z,11.00
2018-01-27T03:12:47.733Z,10.90
2018-01-27T03:13:47.719Z,12.10
2018-01-27T03:14:47.708Z,11.40
2018-01-27T03:15:47.694Z,10.90
2018-01-27T03:16:47.683Z,11.30
2018-01-27T03:17:47.671Z,10.70
2018-01-27T03:18:47.661Z,10.90
2018-01-27T03:19:47.648Z,11.30
2018-01-27T03:20:47.637Z,12.00
2018-01-27T03:21:47.625Z,11.50
2018-01-27T03:22:47.613Z,12.20
2018-01-27T03:23:47.601Z,14.40
2018-01-27T03:24:47.588Z,11.50
2018-01-27T03:25:47.577Z,13.30
2018-01-27T03:26:47.566Z,10.10
2018-01-27T03:27:47.553Z,11.50
2018-01-27T03:28:47.542Z,12.70
2018-01-27T03:29:47.537Z,12.10
2018-01-27T03:30:47.519Z,12.60
2018-01-27T03:31:47.507Z,12.90
2018-01-27T03:32:47.495Z,12.20
2018-01-27T03:33:47.484Z,11.60
2018-01-27T03:34:47.473Z,11.60
2018-01-27T03:35:47.460Z,10.90
2018-01-27T03:36:47.449Z,11.60
2018-01-27T03:37:47.437Z,12.10
2018-01-27T03:38:47.425Z,12.90
2018-01-27T03:39:47.413Z,12.00
2018-01-27T03:40:47.401Z,13.20
2018-01-27T03:41:47.389Z,12.70
2018-01-27T03:42:47.378Z,11.70
2018-01-27T03:43:47.368Z,12.60
2018-01-27T03:44:47.354Z,12.10
2018-01-27T03:45:47.343Z,11.70
2018-01-27T03:46:47.331Z,13.10
2018-01-27T03:47:47.318Z,11.80
2018-01-27T03:48:47.307Z,13.80
2018-01-27T03:49:47.295Z,12.00
2018-01-27T03:50:47.284Z,11.50
2018-01-27T03:51:47.271Z,11.90
2018-01-27T03:52:47.259Z,11.80
2018-01-27T03:53:47.247Z,13.00
2018-01-27T03:54:47.236Z,11.10
2018-01-27T03:55:47.223Z,13.50
2018-01-27T03:56:47.211Z,14.30
2018-01-27T03:57:47.200Z,11.60
2018-01-27T03:58:47.187Z,12.10
2018-01-27T03:59:47.175Z,9.60
2018-01-27T04:00:47.163Z,12.00
2018-01-27T04:01:47.153Z,11.30
2018-01-27T04:02:47.141Z,13.20
2018-01-27T04:03:47.128Z,12.00
2018-01-27T04:04:47.116Z,12.20
2018-01-27T04:05:47.106Z,10.70
2018-01-27T04:06:47.095Z,11.70
2018-01-27T04:07:47.082Z,11.90
2018-01-27T04:08:47.070Z,9.70
2018-01-27T04:09:47.060Z,12.00
2018-01-27T04:10:47.047Z,12.30
2018-01-27T04:11:47.034Z,13.20
2018-01-27T04:12:47.023Z,13.70
2018-01-27T04:13:47.012Z,14.10
2018-01-27T04:14:47.001Z,11.70
2018-01-27T04:15:46.988Z,12.40
2018-01-27T04:16:46.976Z,11.70
2018-01-27T04:17:46.966Z,10.30
2018-01-27T04:18:46.954Z,11.00
2018-01-27T04:19:46.942Z,11.80
2018-01-27T04:20:46.931Z,10.30
2018-01-27T04:21:46.919Z,13.10
2018-01-27T04:22:46.908Z,11.40
2018-01-27T04:23:46.894Z,12.60
2018-01-27T04:24:46.884Z,13.30
2018-01-27T04:25:46.872Z,11.50
2018-01-27T04:26:46.863Z,10.90
2018-01-27T04:27:46.848Z,11.90
2018-01-27T04:28:46.837Z,13.10
2018-01-27T04:29:46.825Z,12.00
2018-01-27T04:30:46.858Z,11.10
2018-01-27T04:31:46.802Z,12.20
2018-01-27T04:32:46.790Z,12.20
2018-01-27T04:33:46.779Z,12.20
2018-01-27T04:34:46.767Z,11.10
2018-01-27T04:35:46.757Z,13.30
2018-01-27T04:36:46.743Z,11.30
2018-01-27T04:37:46.731Z,14.20
2018-01-27T04:38:46.721Z,12.40
2018-01-27T04:39:46.709Z,12.70
2018-01-27T04:40:46.696Z,11.80
2018-01-27T04:41:46.688Z,12.80
2018-01-27T04:42:46.673Z,12.50
2018-01-27T04:43:46.661Z,11.00
2018-01-27T04:44:46.649Z,11.70
2018-01-27T04:45:46.638Z,11.80
2018-01-27T04:46:46.626Z,11.80
2018-01-27T04:47:46.614Z,12.00
2018-01-27T04:48:46.604Z,13.40
2018-01-27T04:49:46.592Z,12.90
2018-01-27T04:50:46.580Z,12.50
2018-01-27T04:51:46.568Z,13.00
2018-01-27T04:52:46.555Z,12.20
2018-01-27T04:53:46.545Z,11.80
2018-01-27T04:54:46.534Z,11.80
2018-01-27T04:55:46.520Z,12.90
2018-01-27T04:56:46.509Z,13.00
2018-01-27T04:57:46.497Z,12.00
2018-01-27T04:58:46.488Z,12.10
2018-01-27T04:59:46.474Z,12.10
2018-01-27T05:00:46.465Z,11.50
2018-01-27T05:01:46.454Z,8.60
2018-01-27T05:02:46.450Z,12.70
2018-01-27T05:03:46.432Z,13.40
2018-01-27T05:04:46.415Z,12.90
2018-01-27T05:05:46.404Z,12.20
2018-01-27T05:06:46.393Z,11.90
2018-01-27T05:07:46.380Z,12.00
2018-01-27T05:08:46.369Z,13.80
2018-01-27T05:09:46.358Z,13.00
2018-01-27T05:10:46.346Z,12.70
2018-01-27T05:11:46.332Z,12.30
2018-01-27T05:12:46.321Z,12.10
2018-01-27T05:13:46.309Z,11.70
2018-01-27T05:14:46.299Z,11.70
2018-01-27T05:15:46.288Z,11.80
2018-01-27T05:16:46.276Z,11.30
2018-01-27T05:17:46.263Z,13.10
2018-01-27T05:18:46.251Z,13.20
2018-01-27T05:19:46.239Z,10.50
2018-01-27T05:20:46.226Z,10.20
2018-01-27T05:21:46.215Z,11.10
2018-01-27T05:22:46.204Z,12.00
2018-01-27T05:23:46.192Z,12.50
2018-01-27T05:24:46.179Z,11.10
2018-01-27T05:25:46.168Z,11.10
2018-01-27T05:26:46.160Z,10.80
2018-01-27T05:27:46.145Z,11.20
2018-01-27T05:28:46.132Z,10.20
2018-01-27T05:29:46.123Z,10.10
2018-01-27T05:30:46.111Z,9.70
2018-01-27T05:31:46.097Z,8.50
2018-01-27T05:32:46.086Z,8.50
2018-01-27T05:33:46.074Z,8.30
2018-01-27T05:34:46.063Z,8.50
2018-01-27T05:35:46.051Z,9.60
2018-01-27T05:36:46.038Z,8.40
2018-01-27T05:37:46.027Z,9.00
2018-01-27T05:38:46.015Z,8.70
2018-01-27T05:39:46.003Z,8.30
2018-01-27T05:40:45.991Z,8.50
2018-01-27T05:41:45.980Z,9.40
2018-01-27T05:42:45.968Z,11.00
2018-01-27T05:43:45.961Z,9.20
2018-01-27T05:44:45.943Z,10.30
2018-01-27T05:45:45.932Z,10.50
2018-01-27T05:46:45.921Z,9.50
2018-01-27T05:47:45.908Z,11.20
2018-01-27T05:48:45.894Z,10.20
2018-01-27T05:49:45.884Z,10.30
2018-01-27T05:50:45.872Z,9.70
2018-01-27T05:51:45.864Z,10.50
2018-01-27T05:52:45.855Z,12.80
2018-01-27T05:53:45.835Z,11.60
2018-01-27T05:54:45.828Z,13.80
2018-01-27T05:55:45.810Z,9.80
2018-01-27T05:56:45.799Z,11.50
2018-01-27T05:57:45.791Z,11.40
2018-01-27T05:58:45.776Z,12.20
2018-01-27T05:59:45.762Z,14.80
2018-01-27T06:00:45.749Z,11.70
2018-01-27T06:01:45.738Z,12.30
2018-01-27T06:02:45.725Z,11.40
2018-01-27T06:03:45.712Z,10.70
2018-01-27T06:04:45.700Z,11.10
2018-01-27T06:05:45.693Z,11.10
2018-01-27T06:06:45.676Z,9.90
2018-01-27T06:07:45.664Z,12.30
2018-01-27T06:08:45.651Z,12.80
2018-01-27T06:09:45.639Z,13.70
2018-01-27T06:10:45.628Z,12.20
2018-01-27T06:11:45.615Z,11.80
2018-01-27T06:12:45.602Z,11.10
2018-01-27T06:13:45.591Z,12.60
2018-01-27T06:14:45.579Z,10.40
2018-01-27T06:15:45.567Z,11.70
2018-01-27T06:16:45.553Z,11.70
2018-01-27T06:17:45.541Z,10.80
2018-01-27T06:18:45.530Z,10.50
2018-01-27T06:19:45.516Z,11.30
2018-01-27T06:20:45.505Z,11.40
2018-01-27T06:21:45.493Z,12.20
2018-01-27T06:22:45.479Z,9.50
2018-01-27T06:23:45.468Z,10.20
2018-01-27T06:24:45.455Z,10.40
2018-01-27T06:25:45.443Z,10.10
2018-01-27T06:26:45.430Z,11.20
2018-01-27T06:27:45.417Z,9.60
2018-01-27T06:28:45.406Z,10.90
2018-01-27T06:29:45.395Z,9.40
2018-01-27T06:30:45.380Z,11.50
2018-01-27T06:31:45.367Z,10.60
2018-01-27T06:32:45.355Z,10.10
2018-01-27T06:33:45.343Z,10.70
2018-01-27T06:34:45.332Z,10.70
2018-01-27T06:35:45.316Z,10.10
2018-01-27T06:36:45.306Z,8.80
2018-01-27T06:37:45.292Z,10.00
2018-01-27T06:38:45.281Z,10.40
2018-01-27T06:39:45.267Z,9.40
2018-01-27T06:40:45.253Z,10.10
2018-01-27T06:41:45.245Z,10.00
2018-01-27T06:42:45.229Z,9.90
2018-01-27T06:43:45.216Z,10.00
2018-01-27T06:44:45.203Z,9.50
2018-01-27T06:45:45.191Z,9.80
2018-01-27T06:46:45.183Z,9.90
2018-01-27T06:47:45.165Z,10.30
2018-01-27T06:48:45.152Z,9.40
2018-01-27T06:49:45.140Z,9.80
2018-01-27T06:50:45.128Z,9.70
2018-01-27T06:51:45.115Z,8.90
2018-01-27T06:52:45.104Z,9.60
2018-01-27T06:53:45.090Z,9.90
2018-01-27T06:54:45.078Z,9.40
2018-01-27T06:55:45.064Z,9.80
2018-01-27T06:56:45.051Z,9.40
2018-01-27T06:57:45.040Z,10.00
2018-01-27T06:58:45.027Z,8.60
2018-01-27T06:59:45.013Z,8.80
2018-01-27T07:00:45.002Z,10.70
2018-01-27T07:01:44.989Z,9.30
2018-01-27T07:02:44.979Z,7.90
2018-01-27T07:03:44.969Z,9.80
2018-01-27T07:04:44.954Z,9.40
2018-01-27T07:05:44.940Z,9.50
2018-01-27T07:06:44.927Z,9.30
2018-01-27T07:07:44.914Z,8.50
2018-01-27T07:08:44.910Z,9.20
2018-01-27T07:09:44.890Z,9.30
2018-01-27T07:10:44.877Z,8.40
2018-01-27T07:11:44.865Z,9.50
2018-01-27T07:12:44.855Z,9.30
2018-01-27T07:13:44.841Z,9.00
2018-01-27T07:14:44.829Z,8.40
2018-01-27T07:15:44.815Z,11.00
2018-01-27T07:16:44.803Z,9.20
2018-01-27T07:17:44.791Z,8.40
2018-01-27T07:18:44.782Z,10.00
2018-01-27T07:19:44.766Z,9.00
2018-01-27T07:20:44.754Z,9.80
2018-01-27T07:21:44.742Z,9.90
2018-01-27T07:22:44.732Z,9.50
2018-01-27T07:23:44.717Z,7.80
2018-01-27T07:24:44.704Z,8.60
2018-01-27T07:25:44.698Z,8.50
2018-01-27T07:26:44.680Z,8.60
2018-01-27T07:27:44.666Z,7.90
2018-01-27T07:28:44.656Z,10.90
2018-01-27T07:29:44.643Z,9.30
2018-01-27T07:30:44.631Z,8.10
2018-01-27T07:31:44.619Z,10.30
2018-01-27T07:32:44.606Z,9.00
2018-01-27T07:33:44.601Z,9.30
2018-01-27T07:34:44.581Z,8.30
2018-01-27T07:35:44.568Z,9.30
2018-01-27T07:36:44.561Z,9.50
2018-01-27T07:37:44.544Z,8.70
2018-01-27T07:38:44.533Z,8.60
2018-01-27T07:39:44.520Z,7.90
2018-01-27T07:40:44.508Z,8.20
2018-01-27T07:41:44.495Z,8.30
2018-01-27T07:42:44.484Z,10.00
2018-01-27T07:43:44.470Z,8.50
2018-01-27T07:44:44.458Z,9.70
2018-01-27T07:45:44.446Z,8.10
2018-01-27T07:46:44.435Z,8.90
2018-01-27T07:47:44.421Z,8.30
2018-01-27T07:48:44.411Z,8.70
2018-01-27T07:49:44.398Z,8.10
2018-01-27T07:50:44.386Z,9.80
2018-01-27T07:51:44.373Z,8.80
2018-01-27T07:52:44.360Z,8.70
2018-01-27T07:53:44.349Z,8.80
2018-01-27T07:54:44.337Z,9.60
2018-01-27T07:55:44.325Z,9.30
2018-01-27T07:56:44.312Z,8.50
2018-01-27T07:57:44.300Z,7.20
2018-01-27T07:58:44.287Z,8.40
2018-01-27T07:59:44.275Z,7.30
2018-01-27T08:00:44.262Z,8.20
2018-01-27T08:01:44.250Z,8.00
2018-01-27T08:02:44.238Z,8.70
2018-01-27T08:03:44.225Z,7.10
2018-01-27T08:04:44.214Z,10.90
2018-01-27T08:05:44.201Z,9.10
2018-01-27T08:06:44.193Z,8.30
2018-01-27T08:07:44.175Z,9.30
2018-01-27T08:08:44.164Z,9.10
2018-01-27T08:09:44.151Z,8.00
2018-01-27T08:10:44.140Z,8.40
2018-01-27T08:11:44.126Z,9.10
2018-01-27T08:12:44.124Z,9.30
2018-01-27T08:13:44.102Z,8.20
2018-01-27T08:14:44.091Z,9.90
2018-01-27T08:15:44.077Z,7.80
2018-01-27T08:16:44.066Z,10.10
2018-01-27T08:17:44.054Z,9.40
2018-01-27T08:18:44.042Z,8.20
2018-01-27T08:19:44.029Z,9.30
2018-01-27T08:20:44.017Z,9.00
2018-01-27T08:21:44.005Z,8.10
2018-01-27T08:22:43.994Z,9.50
2018-01-27T08:23:43.981Z,8.10
2018-01-27T08:24:43.969Z,8.00
2018-01-27T08:25:43.958Z,9.50
2018-01-27T08:26:43.947Z,8.20
2018-01-27T08:27:43.935Z,7.80
2018-01-27T08:28:43.924Z,8.80
2018-01-27T08:29:43.911Z,6.30
2018-01-27T08:30:43.900Z,7.80
2018-01-27T08:31:43.888Z,7.50
2018-01-27T08:32:43.876Z,7.60
2018-01-27T08:33:43.867Z,7.50
2018-01-27T08:34:43.854Z,8.40
2018-01-27T08:35:43.841Z,9.60
2018-01-27T08:36:43.834Z,9.00
2018-01-27T08:37:43.818Z,10.00
2018-01-27T08:38:43.807Z,9.10
2018-01-27T08:39:43.794Z,9.40
2018-01-27T08:40:43.783Z,7.90
2018-01-27T08:41:43.772Z,9.40
2018-01-27T08:42:43.760Z,8.30
2018-01-27T08:43:43.747Z,8.10
2018-01-27T08:44:43.735Z,8.60
2018-01-27T08:45:43.724Z,9.30
2018-01-27T08:46:43.714Z,8.90
2018-01-27T08:47:43.700Z,9.40
2018-01-27T08:48:43.688Z,8.40
2018-01-27T08:49:43.678Z,7.30
2018-01-27T08:50:43.665Z,9.50
2018-01-27T08:51:43.653Z,9.00
2018-01-27T08:52:43.642Z,8.20
2018-01-27T08:53:43.629Z,10.60
2018-01-27T08:54:43.623Z,9.30
2018-01-27T08:55:43.605Z,8.20
2018-01-27T08:56:43.593Z,7.70
2018-01-27T08:57:43.582Z,9.80
2018-01-27T08:58:43.571Z,8.80
2018-01-27T08:59:43.559Z,8.80
2018-01-27T09:00:43.547Z,9.90
2018-01-27T09:01:43.535Z,10.20
2018-01-27T09:02:43.524Z,8.60
2018-01-27T09:03:43.511Z,8.30
2018-01-27T09:04:43.500Z,8.90
2018-01-27T09:05:43.488Z,9.30
2018-01-27T09:06:43.477Z,8.20
2018-01-27T09:07:43.465Z,9.60
2018-01-27T09:08:43.453Z,9.70
2018-01-27T09:09:43.441Z,9.80
2018-01-27T09:10:43.430Z,9.10
2018-01-27T09:11:43.417Z,9.30
2018-01-27T09:12:43.406Z,8.20
2018-01-27T09:13:43.394Z,8.40
2018-01-27T09:14:43.383Z,10.20
2018-01-27T09:15:43.372Z,8.90
2018-01-27T09:16:43.359Z,9.60
2018-01-27T09:17:43.348Z,8.70
2018-01-27T09:18:43.337Z,8.50
2018-01-27T09:19:43.324Z,9.20
2018-01-27T09:20:43.314Z,8.20
2018-01-27T09:21:43.301Z,7.40
2018-01-27T09:22:43.291Z,9.30
2018-01-27T09:23:43.278Z,8.10
2018-01-27T09:24:43.267Z,6.60
2018-01-27T09:25:43.255Z,7.10
2018-01-27T09:26:43.245Z,7.60
2018-01-27T09:27:43.231Z,8.00
2018-01-27T09:28:43.234Z,8.40
2018-01-27T09:29:43.207Z,7.30
2018-01-27T09:30:43.196Z,6.80
2018-01-27T09:31:43.183Z,6.30
2018-01-27T09:32:43.172Z,6.40
2018-01-27T09:33:43.161Z,6.90
2018-01-27T09:34:43.150Z,6.00
2018-01-27T09:35:43.136Z,6.70
2018-01-27T09:36:43.126Z,6.60
2018-01-27T09:37:43.114Z,6.00
2018-01-27T09:38:43.102Z,6.30
2018-01-27T09:39:43.089Z,5.70
2018-01-27T09:40:43.077Z,7.70
2018-01-27T09:41:43.067Z,6.30
2018-01-27T09:42:43.105Z,6.40
2018-01-27T09:43:43.041Z,5.40
2018-01-27T09:44:43.030Z,5.20
2018-01-27T09:45:43.022Z,4.70
2018-01-27T09:46:43.037Z,6.00
2018-01-27T09:47:42.995Z,6.00
2018-01-27T09:48:42.984Z,5.50
2018-01-27T09:49:42.973Z,5.50
2018-01-27T09:50:42.962Z,6.50
2018-01-27T09:51:42.949Z,6.50
2018-01-27T09:52:42.938Z,5.10
2018-01-27T09:53:42.926Z,5.10
2018-01-27T09:54:42.916Z,5.60
2018-01-27T09:55:42.904Z,5.60
2018-01-27T09:56:42.892Z,4.70
2018-01-27T09:57:42.881Z,6.60
2018-01-27T09:58:42.870Z,6.20
2018-01-27T09:59:42.858Z,5.30
2018-01-27T10:00:42.847Z,5.80
2018-01-27T10:01:42.837Z,5.50
2018-01-27T10:02:42.826Z,4.70
2018-01-27T10:03:42.814Z,5.20
2018-01-27T10:04:42.803Z,4.10
2018-01-27T10:05:42.791Z,3.60
2018-01-27T10:06:42.781Z,4.60
2018-01-27T10:07:42.770Z,4.00
2018-01-27T10:08:42.760Z,4.80
2018-01-27T10:09:42.749Z,5.00
2018-01-27T10:10:42.737Z,4.70
2018-01-27T10:11:42.726Z,4.90
2018-01-27T10:12:42.715Z,4.80
2018-01-27T10:13:42.712Z,4.70
2018-01-27T10:14:42.694Z,4.90
2018-01-27T10:15:42.682Z,4.00
2018-01-27T10:16:42.672Z,5.40
2018-01-27T10:17:42.664Z,5.00
2018-01-27T10:18:42.652Z,4.90
2018-01-27T10:19:42.641Z,4.80
2018-01-27T10:20:42.631Z,3.90
2018-01-27T10:21:42.621Z,4.20
2018-01-27T10:22:42.612Z,4.40
2018-01-27T10:23:42.601Z,3.80
2018-01-27T10:24:42.592Z,4.30
2018-01-27T10:25:42.583Z,4.40
2018-01-27T10:26:42.573Z,4.30
2018-01-27T10:27:42.564Z,5.10
2018-01-27T10:28:42.556Z,4.20
2018-01-27T10:29:42.548Z,4.60
2018-01-27T10:30:42.540Z,5.00
2018-01-27T10:31:42.531Z,4.20
2018-01-27T10:32:42.523Z,4.30
2018-01-27T10:33:42.516Z,4.10
2018-01-27T10:34:42.510Z,5.10
2018-01-27T10:35:42.501Z,5.20
2018-01-27T10:36:42.495Z,4.40
2018-01-27T10:37:42.490Z,5.40
2018-01-27T10:38:42.484Z,4.80
2018-01-27T10:39:42.477Z,4.80
2018-01-27T10:40:42.472Z,4.60
2018-01-27T10:41:42.467Z,4.80
2018-01-27T10:42:42.463Z,4.70
2018-01-27T10:43:42.457Z,5.20
2018-01-27T10:44:42.453Z,5.10
2018-01-27T10:45:42.449Z,4.10
2018-01-27T10:46:42.444Z,4.70
2018-01-27T10:47:42.440Z,5.30
2018-01-27T10:48:42.436Z,5.30
2018-01-27T10:49:42.432Z,6.20
2018-01-27T10:50:42.428Z,5.90
2018-01-27T10:51:42.425Z,4.50
2018-01-27T10:52:42.420Z,5.60
2018-01-27T10:53:42.417Z,5.30
2018-01-27T10:54:42.418Z,4.40
2018-01-27T10:55:42.409Z,5.00
2018-01-27T10:56:42.405Z,5.40
2018-01-27T10:57:42.402Z,5.20
2018-01-27T10:58:42.398Z,5.40
2018-01-27T10:59:42.394Z,6.30
2018-01-27T11:00:42.390Z,5.30
2018-01-27T11:01:42.385Z,4.40
2018-01-27T11:02:42.382Z,5.80
2018-01-27T11:03:42.376Z,5.60
2018-01-27T11:04:42.375Z,5.40
2018-01-27T11:05:42.368Z,4.30
2018-01-27T11:06:42.363Z,6.40
2018-01-27T11:07:42.356Z,4.40
2018-01-27T11:08:42.351Z,5.50
2018-01-27T11:09:42.346Z,6.60
2018-01-27T11:10:42.341Z,6.40
2018-01-27T11:11:42.335Z,6.20
2018-01-27T11:12:42.331Z,5.90
2018-01-27T11:13:42.325Z,6.40
2018-01-27T11:14:42.320Z,5.30
2018-01-27T11:15:42.313Z,5.40
2018-01-27T11:16:42.308Z,7.10
2018-01-27T11:17:42.302Z,6.00
2018-01-27T11:18:42.297Z,5.90
2018-01-27T11:19:42.291Z,5.20
2018-01-27T11:20:42.285Z,4.10
2018-01-27T11:21:42.280Z,6.20
2018-01-27T11:22:42.282Z,5.00
2018-01-27T11:23:42.269Z,5.90
2018-01-27T11:24:42.267Z,5.10
2018-01-27T11:25:42.260Z,6.50
2018-01-27T11:26:42.258Z,6.10
2018-01-27T11:27:42.251Z,5.10
2018-01-27T11:28:42.247Z,5.30
2018-01-27T11:29:42.243Z,6.00
2018-01-27T11:30:42.240Z,6.10
2018-01-27T11:31:42.236Z,5.50
2018-01-27T11:32:42.232Z,5.40
2018-01-27T11:33:42.227Z,6.40
2018-01-27T11:34:42.230Z,6.70
2018-01-27T11:35:42.219Z,6.10
2018-01-27T11:36:42.215Z,5.90
2018-01-27T11:37:42.211Z,5.90
2018-01-27T11:38:42.207Z,5.60
2018-01-27T11:39:42.201Z,6.20
2018-01-27T11:40:42.197Z,5.40
2018-01-27T11:41:42.194Z,5.80
2018-01-27T11:42:42.191Z,5.40
2018-01-27T11:43:42.183Z,5.00
2018-01-27T11:44:42.179Z,4.70
2018-01-27T11:45:42.176Z,5.80
2018-01-27T11:46:42.171Z,5.70
2018-01-27T11:47:42.166Z,4.90
2018-01-27T11:48:42.162Z,5.40
2018-01-27T11:49:42.160Z,6.20
2018-01-27T11:50:42.154Z,5.60
2018-01-27T11:51:42.149Z,5.90
2018-01-27T11:52:42.144Z,6.00
2018-01-27T11:53:42.141Z,4.30
2018-01-27T11:54:42.136Z,5.20
2018-01-27T11:55:42.132Z,4.50
2018-01-27T11:56:42.128Z,4.40
2018-01-27T11:57:42.132Z,5.30
2018-01-27T11:58:42.121Z,4.20
2018-01-27T11:59:42.116Z,5.70
2018-01-27T12:00:42.113Z,5.00
2018-01-27T12:01:42.110Z,4.40
2018-01-27T12:02:42.105Z,4.80
2018-01-27T12:03:42.101Z,4.80
2018-01-27T12:04:42.098Z,4.90
2018-01-27T12:05:42.095Z,5.90
2018-01-27T12:06:42.091Z,4.50
2018-01-27T12:07:42.088Z,5.20
2018-01-27T12:08:42.084Z,4.20
2018-01-27T12:09:42.081Z,4.60
2018-01-27T12:10:42.080Z,5.00
2018-01-27T12:11:42.076Z,4.50
2018-01-27T12:12:42.072Z,4.40
2018-01-27T12:13:42.069Z,5.00
2018-01-27T12:14:42.067Z,4.20
2018-01-27T12:15:42.064Z,4.80
2018-01-27T12:16:42.060Z,4.40
2018-01-27T12:17:42.058Z,4.60
2018-01-27T12:18:42.055Z,4.20
2018-01-27T12:19:42.051Z,4.10
2018-01-27T12:20:42.049Z,4.80
2018-01-27T12:21:42.046Z,4.60
2018-01-27T12:22:42.046Z,4.40
2018-01-27T12:23:42.039Z,4.00
2018-01-27T12:24:42.036Z,4.90
2018-01-27T12:25:42.034Z,4.20
2018-01-27T12:26:42.029Z,3.70
2018-01-27T12:27:42.025Z,4.60
2018-01-27T12:28:42.022Z,5.20
2018-01-27T12:29:42.018Z,3.90
2018-01-27T12:30:42.016Z,3.90
2018-01-27T12:31:42.012Z,4.00
2018-01-27T12:32:42.017Z,3.50
2018-01-27T12:33:42.006Z,3.10
2018-01-27T12:34:42.003Z,4.90
2018-01-27T12:35:41.998Z,4.10
2018-01-27T12:36:41.996Z,3.70
2018-01-27T12:37:41.995Z,3.60
2018-01-27T12:38:41.990Z,3.60
2018-01-27T12:39:41.986Z,4.10
2018-01-27T12:40:41.983Z,3.80
2018-01-27T12:41:41.980Z,2.90
2018-01-27T12:42:41.980Z,3.00
2018-01-27T12:43:41.972Z,2.60
2018-01-27T12:44:41.969Z,2.80
2018-01-27T12:45:41.968Z,3.30
2018-01-27T12:46:41.962Z,3.40
2018-01-27T12:47:41.957Z,3.60
2018-01-27T12:48:41.958Z,4.50
2018-01-27T12:49:41.949Z,3.90
2018-01-27T12:50:41.945Z,3.70
2018-01-27T12:51:41.943Z,3.60
2018-01-27T12:52:41.938Z,3.70
2018-01-27T12:53:41.933Z,3.80
2018-01-27T12:54:41.929Z,3.10
2018-01-27T12:55:41.924Z,3.40
2018-01-27T12:56:41.925Z,2.80
2018-01-27T12:57:41.916Z,3.30
2018-01-27T12:58:41.912Z,2.70
2018-01-27T12:59:41.907Z,3.80
2018-01-27T13:00:41.903Z,3.20
2018-01-27T13:01:41.900Z,3.90
2018-01-27T13:02:41.895Z,3.20
2018-01-27T13:03:41.905Z,3.30
2018-01-27T13:04:41.915Z,3.30
2018-01-27T13:05:41.881Z,2.50
2018-01-27T13:06:41.875Z,3.10
2018-01-27T13:07:41.870Z,2.80
2018-01-27T13:08:41.865Z,3.50
2018-01-27T13:09:41.860Z,3.30